sensor_id;sensor_type;location;lat;lon;timestamp;temperature;humidity
4647;DHT22;2336;47.822;7.564;2023-11-18T00:01:31;5.70;99.90
4647;DHT22;2336;47.822;7.564;2023-11-18T00:04:00;5.80;99.90
4647;DHT22;2336;47.822;7.564;2023-11-18T00:06:27;5.80;99.90
4647;DHT22;2336;47.822;7.564;2023-11-18T00:08:54;5.90;99.90
4647;DHT22;2336;47.822;7.564;2023-11-18T00:11:21;5.80;99.90
4647;DHT22;2336;47.822;7.564;2023-11-18T00:13:49;5.80;99.90
4647;DHT22;2336;47.822;7.564;2023-11-18T00:16:16;5.70;99.90
4647;DHT22;2336;47.822;7.564;2023-11-18T00:18:45;5.70;99.90
4647;DHT22;2336;47.822;7.564;2023-11-18T00:21:13;5.60;99.90
4647;DHT22;2336;47.822;7.564;2023-11-18T00:23:40;5.60;99.90
4647;DHT22;2336;47.822;7.564;2023-11-18T00:26:07;5.60;99.90
4647;DHT22;2336;47.822;7.564;2023-11-18T00:28:35;5.50;99.90
4647;DHT22;2336;47.822;7.564;2023-11-18T00:31:03;5.60;99.90
4647;DHT22;2336;47.822;7.564;2023-11-18T00:33:31;5.70;99.90
4647;DHT22;2336;47.822;7.564;2023-11-18T00:35:58;5.80;99.90
4647;DHT22;2336;47.822;7.564;2023-11-18T00:38:28;5.90;99.90
4647;DHT22;2336;47.822;7.564;2023-11-18T00:40:56;5.90;99.90
4647;DHT22;2336;47.822;7.564;2023-11-18T00:43:23;5.90;99.90
4647;DHT22;2336;47.822;7.564;2023-11-18T00:45:50;5.80;99.90
4647;DHT22;2336;47.822;7.564;2023-11-18T00:48:17;5.70;99.90
4647;DHT22;2336;47.822;7.564;2023-11-18T00:50:44;5.60;99.90
4647;DHT22;2336;47.822;7.564;2023-11-18T00:53:11;5.70;99.90
4647;DHT22;2336;47.822;7.564;2023-11-18T00:55:39;5.70;99.90
4647;DHT22;2336;47.822;7.564;2023-11-18T00:58:06;5.70;99.90
4647;DHT22;2336;47.822;7.564;2023-11-18T01:00:33;5.80;99.90
4647;DHT22;2336;47.822;7.564;2023-11-18T01:03:02;5.80;99.90
4647;DHT22;2336;47.822;7.564;2023-11-18T01:05:29;5.80;99.90
4647;DHT22;2336;47.822;7.564;2023-11-18T01:07:56;5.80;99.90
4647;DHT22;2336;47.822;7.564;2023-11-18T01:10:23;5.80;99.90
4647;DHT22;2336;47.822;7.564;2023-11-18T01:12:52;5.80;99.90
4647;DHT22;2336;47.822;7.564;2023-11-18T01:15:21;5.80;99.90
4647;DHT22;2336;47.822;7.564;2023-11-18T01:17:48;5.80;99.90
4647;DHT22;2336;47.822;7.564;2023-11-18T01:20:15;5.80;99.90
4647;DHT22;2336;47.822;7.564;2023-11-18T01:22:47;5.80;99.90
4647;DHT22;2336;47.822;7.564;2023-11-18T01:25:14;5.80;99.90
4647;DHT22;2336;47.822;7.564;2023-11-18T01:27:43;5.80;99.90
4647;DHT22;2336;47.822;7.564;2023-11-18T01:30:14;5.80;99.90
4647;DHT22;2336;47.822;7.564;2023-11-18T01:32:41;5.80;99.90
4647;DHT22;2336;47.822;7.564;2023-11-18T01:35:08;5.80;99.90
4647;DHT22;2336;47.822;7.564;2023-11-18T01:37:36;5.80;99.90
4647;DHT22;2336;47.822;7.564;2023-11-18T01:40:04;5.80;99.90
4647;DHT22;2336;47.822;7.564;2023-11-18T01:42:32;5.80;99.90
4647;DHT22;2336;47.822;7.564;2023-11-18T01:44:59;5.80;99.90
4647;DHT22;2336;47.822;7.564;2023-11-18T01:47:31;5.80;99.90
4647;DHT22;2336;47.822;7.564;2023-11-18T01:49:59;5.80;99.90
4647;DHT22;2336;47.822;7.564;2023-11-18T01:52:27;5.80;99.90
4647;DHT22;2336;47.822;7.564;2023-11-18T01:54:56;5.80;99.90
4647;DHT22;2336;47.822;7.564;2023-11-18T01:57:23;5.80;99.90
4647;DHT22;2336;47.822;7.564;2023-11-18T01:59:52;5.80;99.90
4647;DHT22;2336;47.822;7.564;2023-11-18T02:02:19;5.80;99.90
4647;DHT22;2336;47.822;7.564;2023-11-18T02:04:49;5.70;99.90
4647;DHT22;2336;47.822;7.564;2023-11-18T02:07:16;5.70;99.90
4647;DHT22;2336;47.822;7.564;2023-11-18T02:09:43;5.70;99.90
4647;DHT22;2336;47.822;7.564;2023-11-18T02:12:23;5.60;99.90
4647;DHT22;2336;47.822;7.564;2023-11-18T02:14:53;5.60;99.90
4647;DHT22;2336;47.822;7.564;2023-11-18T02:17:23;5.60;99.90
4647;DHT22;2336;47.822;7.564;2023-11-18T02:19:53;5.60;99.90
4647;DHT22;2336;47.822;7.564;2023-11-18T02:22:22;5.70;99.90
4647;DHT22;2336;47.822;7.564;2023-11-18T02:24:49;5.70;99.90
4647;DHT22;2336;47.822;7.564;2023-11-18T02:27:18;5.70;99.90
4647;DHT22;2336;47.822;7.564;2023-11-18T02:29:48;5.70;99.90
4647;DHT22;2336;47.822;7.564;2023-11-18T02:32:23;5.70;99.90
4647;DHT22;2336;47.822;7.564;2023-11-18T02:34:58;5.60;99.90
4647;DHT22;2336;47.822;7.564;2023-11-18T02:37:29;5.60;99.90
4647;DHT22;2336;47.822;7.564;2023-11-18T02:40:03;5.60;99.90
4647;DHT22;2336;47.822;7.564;2023-11-18T02:42:36;5.60;99.90
4647;DHT22;2336;47.822;7.564;2023-11-18T02:45:05;5.50;99.90
4647;DHT22;2336;47.822;7.564;2023-11-18T02:47:33;5.50;99.90
4647;DHT22;2336;47.822;7.564;2023-11-18T02:50:00;5.50;99.90
4647;DHT22;2336;47.822;7.564;2023-11-18T02:52:36;5.40;99.90
4647;DHT22;2336;47.822;7.564;2023-11-18T02:55:04;5.40;99.90
4647;DHT22;2336;47.822;7.564;2023-11-18T02:57:32;5.40;99.90
4647;DHT22;2336;47.822;7.564;2023-11-18T03:00:00;5.40;99.90
4647;DHT22;2336;47.822;7.564;2023-11-18T03:02:30;5.30;99.90
4647;DHT22;2336;47.822;7.564;2023-11-18T03:04:57;5.30;99.90
4647;DHT22;2336;47.822;7.564;2023-11-18T03:07:24;5.30;99.90
4647;DHT22;2336;47.822;7.564;2023-11-18T03:09:52;5.30;99.90
4647;DHT22;2336;47.822;7.564;2023-11-18T03:12:21;5.30;99.90
4647;DHT22;2336;47.822;7.564;2023-11-18T03:14:48;5.30;99.90
4647;DHT22;2336;47.822;7.564;2023-11-18T03:17:16;5.30;99.90
4647;DHT22;2336;47.822;7.564;2023-11-18T03:19:43;5.30;99.90
4647;DHT22;2336;47.822;7.564;2023-11-18T03:22:10;5.30;99.90
4647;DHT22;2336;47.822;7.564;2023-11-18T03:24:38;5.30;99.90
4647;DHT22;2336;47.822;7.564;2023-11-18T03:27:05;5.30;99.90
4647;DHT22;2336;47.822;7.564;2023-11-18T03:29:34;5.30;99.90
4647;DHT22;2336;47.822;7.564;2023-11-18T03:32:01;5.30;99.90
4647;DHT22;2336;47.822;7.564;2023-11-18T03:34:32;5.30;99.90
4647;DHT22;2336;47.822;7.564;2023-11-18T03:36:59;5.30;99.90
4647;DHT22;2336;47.822;7.564;2023-11-18T03:39:26;5.30;99.90
4647;DHT22;2336;47.822;7.564;2023-11-18T03:41:53;5.30;99.90
4647;DHT22;2336;47.822;7.564;2023-11-18T03:44:22;5.30;99.90
4647;DHT22;2336;47.822;7.564;2023-11-18T03:46:50;5.20;99.90
4647;DHT22;2336;47.822;7.564;2023-11-18T03:49:17;5.30;99.90
4647;DHT22;2336;47.822;7.564;2023-11-18T03:51:46;5.30;99.90
4647;DHT22;2336;47.822;7.564;2023-11-18T03:54:13;5.40;99.90
4647;DHT22;2336;47.822;7.564;2023-11-18T03:56:40;5.30;99.90
4647;DHT22;2336;47.822;7.564;2023-11-18T03:59:07;5.30;99.90
4647;DHT22;2336;47.822;7.564;2023-11-18T04:01:34;5.30;99.90
4647;DHT22;2336;47.822;7.564;2023-11-18T04:04:01;5.30;99.90
4647;DHT22;2336;47.822;7.564;2023-11-18T04:06:30;5.30;99.90
4647;DHT22;2336;47.822;7.564;2023-11-18T04:08:58;5.30;99.90
4647;DHT22;2336;47.822;7.564;2023-11-18T04:11:25;5.30;99.90
4647;DHT22;2336;47.822;7.564;2023-11-18T04:13:52;5.20;99.90
4647;DHT22;2336;47.822;7.564;2023-11-18T04:16:18;5.20;99.90
4647;DHT22;2336;47.822;7.564;2023-11-18T04:18:45;5.20;99.90
4647;DHT22;2336;47.822;7.564;2023-11-18T04:21:13;5.20;99.90
4647;DHT22;2336;47.822;7.564;2023-11-18T04:23:42;5.20;99.90
4647;DHT22;2336;47.822;7.564;2023-11-18T04:26:11;5.20;99.90
4647;DHT22;2336;47.822;7.564;2023-11-18T04:28:38;5.20;99.90
4647;DHT22;2336;47.822;7.564;2023-11-18T04:31:05;5.20;99.90
4647;DHT22;2336;47.822;7.564;2023-11-18T04:33:32;5.10;99.90
4647;DHT22;2336;47.822;7.564;2023-11-18T04:35:59;5.20;99.90
4647;DHT22;2336;47.822;7.564;2023-11-18T04:38:27;5.20;99.90
4647;DHT22;2336;47.822;7.564;2023-11-18T04:40:54;5.10;99.90
4647;DHT22;2336;47.822;7.564;2023-11-18T04:43:22;5.10;99.90
4647;DHT22;2336;47.822;7.564;2023-11-18T04:45:49;5.10;99.90
4647;DHT22;2336;47.822;7.564;2023-11-18T04:48:16;5.20;99.90
4647;DHT22;2336;47.822;7.564;2023-11-18T04:50:45;5.20;99.90
4647;DHT22;2336;47.822;7.564;2023-11-18T04:53:11;5.20;99.90
4647;DHT22;2336;47.822;7.564;2023-11-18T04:55:38;5.20;99.90
4647;DHT22;2336;47.822;7.564;2023-11-18T04:58:06;5.10;99.90
4647;DHT22;2336;47.822;7.564;2023-11-18T05:00:36;5.10;99.90
4647;DHT22;2336;47.822;7.564;2023-11-18T05:03:03;5.10;99.90
4647;DHT22;2336;47.822;7.564;2023-11-18T05:05:31;5.20;99.90
4647;DHT22;2336;47.822;7.564;2023-11-18T05:07:58;5.20;99.90
4647;DHT22;2336;47.822;7.564;2023-11-18T05:10:26;5.20;99.90
4647;DHT22;2336;47.822;7.564;2023-11-18T05:12:53;5.20;99.90
4647;DHT22;2336;47.822;7.564;2023-11-18T05:15:21;5.20;99.90
4647;DHT22;2336;47.822;7.564;2023-11-18T05:17:51;5.30;99.90
4647;DHT22;2336;47.822;7.564;2023-11-18T05:20:18;5.30;99.90
4647;DHT22;2336;47.822;7.564;2023-11-18T05:22:45;5.40;99.90
4647;DHT22;2336;47.822;7.564;2023-11-18T05:25:12;5.40;99.90
4647;DHT22;2336;47.822;7.564;2023-11-18T05:27:39;5.40;99.90
4647;DHT22;2336;47.822;7.564;2023-11-18T05:30:07;5.40;99.90
4647;DHT22;2336;47.822;7.564;2023-11-18T05:32:35;5.30;99.90
4647;DHT22;2336;47.822;7.564;2023-11-18T05:35:04;5.30;99.90
4647;DHT22;2336;47.822;7.564;2023-11-18T05:37:32;5.20;99.90
4647;DHT22;2336;47.822;7.564;2023-11-18T05:40:04;5.20;99.90
4647;DHT22;2336;47.822;7.564;2023-11-18T05:42:32;5.20;99.90
4647;DHT22;2336;47.822;7.564;2023-11-18T05:45:02;5.20;99.90
4647;DHT22;2336;47.822;7.564;2023-11-18T05:47:29;5.30;99.90
4647;DHT22;2336;47.822;7.564;2023-11-18T05:49:56;5.20;99.90
4647;DHT22;2336;47.822;7.564;2023-11-18T05:52:24;5.30;99.90
4647;DHT22;2336;47.822;7.564;2023-11-18T05:54:52;5.30;99.90
4647;DHT22;2336;47.822;7.564;2023-11-18T05:57:19;5.30;99.90
4647;DHT22;2336;47.822;7.564;2023-11-18T05:59:45;5.30;99.90
4647;DHT22;2336;47.822;7.564;2023-11-18T06:02:14;5.30;99.90
4647;DHT22;2336;47.822;7.564;2023-11-18T06:04:43;5.30;99.90
4647;DHT22;2336;47.822;7.564;2023-11-18T06:07:10;5.30;99.90
4647;DHT22;2336;47.822;7.564;2023-11-18T06:09:40;5.40;99.90
4647;DHT22;2336;47.822;7.564;2023-11-18T06:12:08;5.40;99.90
4647;DHT22;2336;47.822;7.564;2023-11-18T06:14:36;5.40;99.90
4647;DHT22;2336;47.822;7.564;2023-11-18T06:17:03;5.40;99.90
4647;DHT22;2336;47.822;7.564;2023-11-18T06:19:32;5.30;99.90
4647;DHT22;2336;47.822;7.564;2023-11-18T06:21:59;5.40;99.90
4647;DHT22;2336;47.822;7.564;2023-11-18T06:24:26;5.40;99.90
4647;DHT22;2336;47.822;7.564;2023-11-18T06:26:55;5.30;99.90
4647;DHT22;2336;47.822;7.564;2023-11-18T06:29:22;5.30;99.90
4647;DHT22;2336;47.822;7.564;2023-11-18T06:31:49;5.40;99.90
4647;DHT22;2336;47.822;7.564;2023-11-18T06:34:16;5.30;99.90
4647;DHT22;2336;47.822;7.564;2023-11-18T06:36:43;5.30;99.90
4647;DHT22;2336;47.822;7.564;2023-11-18T06:39:11;5.30;99.90
4647;DHT22;2336;47.822;7.564;2023-11-18T06:41:38;5.30;99.90
4647;DHT22;2336;47.822;7.564;2023-11-18T06:44:15;5.30;99.90
4647;DHT22;2336;47.822;7.564;2023-11-18T06:46:43;5.40;99.90
4647;DHT22;2336;47.822;7.564;2023-11-18T06:49:10;5.30;99.90
4647;DHT22;2336;47.822;7.564;2023-11-18T06:51:41;5.30;99.90
4647;DHT22;2336;47.822;7.564;2023-11-18T06:54:08;5.30;99.90
4647;DHT22;2336;47.822;7.564;2023-11-18T06:56:36;5.30;99.90
4647;DHT22;2336;47.822;7.564;2023-11-18T06:59:04;5.30;99.90
4647;DHT22;2336;47.822;7.564;2023-11-18T07:01:34;5.30;99.90
4647;DHT22;2336;47.822;7.564;2023-11-18T07:04:01;5.30;99.90
4647;DHT22;2336;47.822;7.564;2023-11-18T07:06:28;5.40;99.90
4647;DHT22;2336;47.822;7.564;2023-11-18T07:08:55;5.40;99.90
4647;DHT22;2336;47.822;7.564;2023-11-18T07:11:26;5.50;99.90
4647;DHT22;2336;47.822;7.564;2023-11-18T07:13:53;5.40;99.90
4647;DHT22;2336;47.822;7.564;2023-11-18T07:16:23;5.50;99.90
4647;DHT22;2336;47.822;7.564;2023-11-18T07:18:51;5.50;99.90
4647;DHT22;2336;47.822;7.564;2023-11-18T07:21:18;5.50;99.90
4647;DHT22;2336;47.822;7.564;2023-11-18T07:23:45;5.60;99.90
4647;DHT22;2336;47.822;7.564;2023-11-18T07:26:12;5.70;99.90
4647;DHT22;2336;47.822;7.564;2023-11-18T07:28:39;5.70;99.90
4647;DHT22;2336;47.822;7.564;2023-11-18T07:31:07;5.70;99.90
4647;DHT22;2336;47.822;7.564;2023-11-18T07:33:34;5.80;99.90
4647;DHT22;2336;47.822;7.564;2023-11-18T07:36:03;5.80;99.90
4647;DHT22;2336;47.822;7.564;2023-11-18T07:38:31;5.80;99.90
4647;DHT22;2336;47.822;7.564;2023-11-18T07:41:00;5.80;99.90
4647;DHT22;2336;47.822;7.564;2023-11-18T07:43:28;5.80;99.90
4647;DHT22;2336;47.822;7.564;2023-11-18T07:45:56;5.90;99.90
4647;DHT22;2336;47.822;7.564;2023-11-18T07:48:22;5.90;99.90
4647;DHT22;2336;47.822;7.564;2023-11-18T07:50:49;5.90;99.90
4647;DHT22;2336;47.822;7.564;2023-11-18T07:53:17;6.00;99.90
4647;DHT22;2336;47.822;7.564;2023-11-18T07:55:44;6.00;99.90
4647;DHT22;2336;47.822;7.564;2023-11-18T07:58:15;6.00;99.90
4647;DHT22;2336;47.822;7.564;2023-11-18T08:00:44;6.10;99.90
4647;DHT22;2336;47.822;7.564;2023-11-18T08:03:12;6.20;99.90
4647;DHT22;2336;47.822;7.564;2023-11-18T08:05:39;6.20;99.90
4647;DHT22;2336;47.822;7.564;2023-11-18T08:08:06;6.30;99.90
4647;DHT22;2336;47.822;7.564;2023-11-18T08:10:34;6.30;99.90
4647;DHT22;2336;47.822;7.564;2023-11-18T08:13:03;6.30;99.90
4647;DHT22;2336;47.822;7.564;2023-11-18T08:15:32;6.40;99.90
4647;DHT22;2336;47.822;7.564;2023-11-18T08:17:59;6.40;99.90
4647;DHT22;2336;47.822;7.564;2023-11-18T08:20:26;6.50;99.90
4647;DHT22;2336;47.822;7.564;2023-11-18T08:22:53;6.60;99.90
4647;DHT22;2336;47.822;7.564;2023-11-18T08:25:20;6.60;99.90
4647;DHT22;2336;47.822;7.564;2023-11-18T08:27:49;6.70;99.90
4647;DHT22;2336;47.822;7.564;2023-11-18T08:30:16;6.80;99.90
4647;DHT22;2336;47.822;7.564;2023-11-18T08:32:45;6.90;99.90
4647;DHT22;2336;47.822;7.564;2023-11-18T08:35:12;6.90;99.90
4647;DHT22;2336;47.822;7.564;2023-11-18T08:37:40;7.00;99.90
4647;DHT22;2336;47.822;7.564;2023-11-18T08:40:08;7.00;99.90
4647;DHT22;2336;47.822;7.564;2023-11-18T08:42:41;7.10;99.90
4647;DHT22;2336;47.822;7.564;2023-11-18T08:45:15;7.20;99.90
4647;DHT22;2336;47.822;7.564;2023-11-18T08:47:43;7.20;99.90
4647;DHT22;2336;47.822;7.564;2023-11-18T08:50:12;7.30;99.90
4647;DHT22;2336;47.822;7.564;2023-11-18T08:52:39;7.40;99.90
4647;DHT22;2336;47.822;7.564;2023-11-18T08:55:10;7.50;99.90
4647;DHT22;2336;47.822;7.564;2023-11-18T08:57:46;7.50;99.90
4647;DHT22;2336;47.822;7.564;2023-11-18T09:00:27;7.50;99.90
4647;DHT22;2336;47.822;7.564;2023-11-18T09:03:12;7.60;99.90
4647;DHT22;2336;47.822;7.564;2023-11-18T09:05:44;7.60;99.90
4647;DHT22;2336;47.822;7.564;2023-11-18T09:08:23;7.80;99.90
4647;DHT22;2336;47.822;7.564;2023-11-18T09:10:50;7.80;99.90
4647;DHT22;2336;47.822;7.564;2023-11-18T09:13:19;7.90;99.90
4647;DHT22;2336;47.822;7.564;2023-11-18T09:15:48;8.00;99.90
4647;DHT22;2336;47.822;7.564;2023-11-18T09:18:15;8.00;99.90
4647;DHT22;2336;47.822;7.564;2023-11-18T09:20:43;8.10;99.90
4647;DHT22;2336;47.822;7.564;2023-11-18T09:23:10;8.10;99.90
4647;DHT22;2336;47.822;7.564;2023-11-18T09:25:38;8.20;99.90
4647;DHT22;2336;47.822;7.564;2023-11-18T09:28:06;8.20;99.90
4647;DHT22;2336;47.822;7.564;2023-11-18T09:30:36;8.20;99.90
4647;DHT22;2336;47.822;7.564;2023-11-18T09:33:16;8.20;99.90
4647;DHT22;2336;47.822;7.564;2023-11-18T09:35:51;8.20;99.90
4647;DHT22;2336;47.822;7.564;2023-11-18T09:38:21;8.30;99.90
4647;DHT22;2336;47.822;7.564;2023-11-18T09:40:49;8.20;99.90
4647;DHT22;2336;47.822;7.564;2023-11-18T09:43:19;8.30;99.90
4647;DHT22;2336;47.822;7.564;2023-11-18T09:45:48;8.30;99.90
4647;DHT22;2336;47.822;7.564;2023-11-18T09:48:18;8.40;99.90
4647;DHT22;2336;47.822;7.564;2023-11-18T09:50:51;8.40;99.90
4647;DHT22;2336;47.822;7.564;2023-11-18T09:53:19;8.50;99.90
4647;DHT22;2336;47.822;7.564;2023-11-18T09:55:51;8.50;99.90
4647;DHT22;2336;47.822;7.564;2023-11-18T09:58:21;8.60;99.90
4647;DHT22;2336;47.822;7.564;2023-11-18T10:00:50;8.60;99.90
4647;DHT22;2336;47.822;7.564;2023-11-18T10:03:28;8.70;99.90
4647;DHT22;2336;47.822;7.564;2023-11-18T10:05:56;8.70;99.90
4647;DHT22;2336;47.822;7.564;2023-11-18T10:08:31;8.70;99.90
4647;DHT22;2336;47.822;7.564;2023-11-18T10:10:58;8.70;99.90
4647;DHT22;2336;47.822;7.564;2023-11-18T10:13:34;8.80;99.90
4647;DHT22;2336;47.822;7.564;2023-11-18T10:16:06;8.80;99.90
4647;DHT22;2336;47.822;7.564;2023-11-18T10:18:35;8.80;99.90
4647;DHT22;2336;47.822;7.564;2023-11-18T10:21:02;8.80;99.90
4647;DHT22;2336;47.822;7.564;2023-11-18T10:23:33;8.90;99.90
4647;DHT22;2336;47.822;7.564;2023-11-18T10:26:03;8.90;99.90
4647;DHT22;2336;47.822;7.564;2023-11-18T10:28:31;8.90;99.90
4647;DHT22;2336;47.822;7.564;2023-11-18T10:30:59;9.00;99.90
4647;DHT22;2336;47.822;7.564;2023-11-18T10:33:29;9.00;99.90
4647;DHT22;2336;47.822;7.564;2023-11-18T10:35:59;9.10;99.90
4647;DHT22;2336;47.822;7.564;2023-11-18T10:38:29;9.10;99.90
4647;DHT22;2336;47.822;7.564;2023-11-18T10:40:57;9.10;99.90
4647;DHT22;2336;47.822;7.564;2023-11-18T10:43:26;9.10;99.90
4647;DHT22;2336;47.822;7.564;2023-11-18T10:46:04;9.10;99.90
4647;DHT22;2336;47.822;7.564;2023-11-18T10:48:38;9.10;99.90
4647;DHT22;2336;47.822;7.564;2023-11-18T10:51:08;9.20;99.90
4647;DHT22;2336;47.822;7.564;2023-11-18T10:53:38;9.20;99.90
4647;DHT22;2336;47.822;7.564;2023-11-18T10:56:05;9.20;99.90
4647;DHT22;2336;47.822;7.564;2023-11-18T10:58:35;9.20;99.90
4647;DHT22;2336;47.822;7.564;2023-11-18T11:01:05;9.20;99.90
4647;DHT22;2336;47.822;7.564;2023-11-18T11:03:52;9.20;99.90
4647;DHT22;2336;47.822;7.564;2023-11-18T11:06:23;9.20;99.90
4647;DHT22;2336;47.822;7.564;2023-11-18T11:08:50;9.20;99.90
4647;DHT22;2336;47.822;7.564;2023-11-18T11:11:20;9.20;99.90
4647;DHT22;2336;47.822;7.564;2023-11-18T11:13:49;9.30;99.90
4647;DHT22;2336;47.822;7.564;2023-11-18T11:16:19;9.30;99.90
4647;DHT22;2336;47.822;7.564;2023-11-18T11:18:48;9.40;99.90
4647;DHT22;2336;47.822;7.564;2023-11-18T11:21:24;9.30;99.90
4647;DHT22;2336;47.822;7.564;2023-11-18T11:23:56;9.40;99.90
4647;DHT22;2336;47.822;7.564;2023-11-18T11:26:40;9.40;99.90
4647;DHT22;2336;47.822;7.564;2023-11-18T11:29:18;9.30;99.90
4647;DHT22;2336;47.822;7.564;2023-11-18T11:32:00;9.40;99.90
4647;DHT22;2336;47.822;7.564;2023-11-18T11:34:30;9.30;99.90
4647;DHT22;2336;47.822;7.564;2023-11-18T11:37:00;9.30;99.90
4647;DHT22;2336;47.822;7.564;2023-11-18T11:39:27;9.40;99.90
4647;DHT22;2336;47.822;7.564;2023-11-18T11:41:56;9.40;99.90
4647;DHT22;2336;47.822;7.564;2023-11-18T11:44:24;9.40;99.90
4647;DHT22;2336;47.822;7.564;2023-11-18T11:46:56;9.40;99.90
4647;DHT22;2336;47.822;7.564;2023-11-18T11:49:26;9.40;99.90
4647;DHT22;2336;47.822;7.564;2023-11-18T11:52:00;9.40;99.90
4647;DHT22;2336;47.822;7.564;2023-11-18T11:54:35;9.40;99.90
4647;DHT22;2336;47.822;7.564;2023-11-18T11:57:04;9.40;99.90
4647;DHT22;2336;47.822;7.564;2023-11-18T11:59:36;9.30;99.90
4647;DHT22;2336;47.822;7.564;2023-11-18T12:02:22;9.30;99.90
4647;DHT22;2336;47.822;7.564;2023-11-18T12:04:51;9.30;99.90
4647;DHT22;2336;47.822;7.564;2023-11-18T12:07:21;9.30;99.90
4647;DHT22;2336;47.822;7.564;2023-11-18T12:09:49;9.20;99.90
4647;DHT22;2336;47.822;7.564;2023-11-18T12:12:21;9.20;99.90
4647;DHT22;2336;47.822;7.564;2023-11-18T12:14:52;9.20;99.90
4647;DHT22;2336;47.822;7.564;2023-11-18T12:17:22;9.20;99.90
4647;DHT22;2336;47.822;7.564;2023-11-18T12:19:50;9.30;99.90
4647;DHT22;2336;47.822;7.564;2023-11-18T12:22:25;9.30;99.90
4647;DHT22;2336;47.822;7.564;2023-11-18T12:28:11;9.30;99.90
4647;DHT22;2336;47.822;7.564;2023-11-18T12:30:42;9.30;99.90
4647;DHT22;2336;47.822;7.564;2023-11-18T12:33:22;9.30;99.90
4647;DHT22;2336;47.822;7.564;2023-11-18T12:39:26;9.30;99.90
4647;DHT22;2336;47.822;7.564;2023-11-18T12:42:02;9.30;99.90
4647;DHT22;2336;47.822;7.564;2023-11-18T12:44:36;9.30;99.90
4647;DHT22;2336;47.822;7.564;2023-11-18T12:47:05;9.30;99.90
4647;DHT22;2336;47.822;7.564;2023-11-18T12:49:41;9.30;99.90
4647;DHT22;2336;47.822;7.564;2023-11-18T12:52:09;9.30;99.90
4647;DHT22;2336;47.822;7.564;2023-11-18T12:54:38;9.30;99.90
4647;DHT22;2336;47.822;7.564;2023-11-18T12:57:09;9.30;99.90
4647;DHT22;2336;47.822;7.564;2023-11-18T12:59:40;9.30;99.90
4647;DHT22;2336;47.822;7.564;2023-11-18T13:02:07;9.30;99.90
4647;DHT22;2336;47.822;7.564;2023-11-18T13:04:39;9.30;99.90
4647;DHT22;2336;47.822;7.564;2023-11-18T13:07:07;9.40;99.90
4647;DHT22;2336;47.822;7.564;2023-11-18T13:09:38;9.40;99.90
4647;DHT22;2336;47.822;7.564;2023-11-18T13:12:07;9.30;99.90
4647;DHT22;2336;47.822;7.564;2023-11-18T13:14:35;9.30;99.90
4647;DHT22;2336;47.822;7.564;2023-11-18T13:17:03;9.30;99.90
4647;DHT22;2336;47.822;7.564;2023-11-18T13:19:31;9.30;99.90
4647;DHT22;2336;47.822;7.564;2023-11-18T13:22:01;9.30;99.90
4647;DHT22;2336;47.822;7.564;2023-11-18T13:24:29;9.30;99.90
4647;DHT22;2336;47.822;7.564;2023-11-18T13:27:00;9.40;99.90
4647;DHT22;2336;47.822;7.564;2023-11-18T13:29:29;9.40;99.90
4647;DHT22;2336;47.822;7.564;2023-11-18T13:31:56;9.50;99.90
4647;DHT22;2336;47.822;7.564;2023-11-18T13:34:23;9.50;99.90
4647;DHT22;2336;47.822;7.564;2023-11-18T13:36:52;9.60;99.90
4647;DHT22;2336;47.822;7.564;2023-11-18T13:39:20;9.50;99.90
4647;DHT22;2336;47.822;7.564;2023-11-18T13:41:49;9.60;99.90
4647;DHT22;2336;47.822;7.564;2023-11-18T13:44:32;9.60;99.90
4647;DHT22;2336;47.822;7.564;2023-11-18T13:47:00;9.60;99.90
4647;DHT22;2336;47.822;7.564;2023-11-18T13:49:28;9.50;99.90
4647;DHT22;2336;47.822;7.564;2023-11-18T13:51:55;9.50;99.90
4647;DHT22;2336;47.822;7.564;2023-11-18T13:54:22;9.50;99.90
4647;DHT22;2336;47.822;7.564;2023-11-18T13:56:50;9.60;99.90
4647;DHT22;2336;47.822;7.564;2023-11-18T13:59:18;9.60;99.90
4647;DHT22;2336;47.822;7.564;2023-11-18T14:01:46;9.50;99.90
4647;DHT22;2336;47.822;7.564;2023-11-18T14:04:13;9.60;99.90
4647;DHT22;2336;47.822;7.564;2023-11-18T14:06:40;9.60;99.90
4647;DHT22;2336;47.822;7.564;2023-11-18T14:09:07;9.60;99.90
4647;DHT22;2336;47.822;7.564;2023-11-18T14:11:36;9.60;99.90
4647;DHT22;2336;47.822;7.564;2023-11-18T14:14:03;9.60;99.90
4647;DHT22;2336;47.822;7.564;2023-11-18T14:16:31;9.60;99.90
4647;DHT22;2336;47.822;7.564;2023-11-18T14:18:59;9.50;99.90
4647;DHT22;2336;47.822;7.564;2023-11-18T14:21:26;9.50;99.90
4647;DHT22;2336;47.822;7.564;2023-11-18T14:23:53;9.50;99.90
4647;DHT22;2336;47.822;7.564;2023-11-18T14:26:25;9.50;99.90
4647;DHT22;2336;47.822;7.564;2023-11-18T14:28:52;9.50;99.90
4647;DHT22;2336;47.822;7.564;2023-11-18T14:31:19;9.50;99.90
4647;DHT22;2336;47.822;7.564;2023-11-18T14:33:47;9.50;99.90
4647;DHT22;2336;47.822;7.564;2023-11-18T14:36:15;9.50;99.90
4647;DHT22;2336;47.822;7.564;2023-11-18T14:38:42;9.50;99.90
4647;DHT22;2336;47.822;7.564;2023-11-18T14:41:10;9.40;99.90
4647;DHT22;2336;47.822;7.564;2023-11-18T14:43:37;9.40;99.90
4647;DHT22;2336;47.822;7.564;2023-11-18T14:46:06;9.40;99.90
4647;DHT22;2336;47.822;7.564;2023-11-18T14:48:33;9.40;99.90
4647;DHT22;2336;47.822;7.564;2023-11-18T14:51:00;9.40;99.90
4647;DHT22;2336;47.822;7.564;2023-11-18T14:53:29;9.30;99.90
4647;DHT22;2336;47.822;7.564;2023-11-18T14:55:56;9.30;99.90
4647;DHT22;2336;47.822;7.564;2023-11-18T14:58:23;9.30;99.90
4647;DHT22;2336;47.822;7.564;2023-11-18T15:00:51;9.30;99.90
4647;DHT22;2336;47.822;7.564;2023-11-18T15:03:22;9.30;99.90
4647;DHT22;2336;47.822;7.564;2023-11-18T15:05:49;9.30;99.90
4647;DHT22;2336;47.822;7.564;2023-11-18T15:08:16;9.30;99.90
4647;DHT22;2336;47.822;7.564;2023-11-18T15:10:44;9.20;99.90
4647;DHT22;2336;47.822;7.564;2023-11-18T15:13:11;9.20;99.90
4647;DHT22;2336;47.822;7.564;2023-11-18T15:15:41;9.30;99.90
4647;DHT22;2336;47.822;7.564;2023-11-18T15:18:08;9.30;99.90
4647;DHT22;2336;47.822;7.564;2023-11-18T15:20:39;9.30;99.90
4647;DHT22;2336;47.822;7.564;2023-11-18T15:23:08;9.30;99.90
4647;DHT22;2336;47.822;7.564;2023-11-18T15:25:35;9.20;99.90
4647;DHT22;2336;47.822;7.564;2023-11-18T15:28:04;9.20;99.90
4647;DHT22;2336;47.822;7.564;2023-11-18T15:30:35;9.20;99.90
4647;DHT22;2336;47.822;7.564;2023-11-18T15:33:02;9.20;99.90
4647;DHT22;2336;47.822;7.564;2023-11-18T15:35:29;9.20;99.90
4647;DHT22;2336;47.822;7.564;2023-11-18T15:37:56;9.10;99.90
4647;DHT22;2336;47.822;7.564;2023-11-18T15:40:23;9.20;99.90
4647;DHT22;2336;47.822;7.564;2023-11-18T15:42:51;9.10;99.90
4647;DHT22;2336;47.822;7.564;2023-11-18T15:45:21;9.20;99.90
4647;DHT22;2336;47.822;7.564;2023-11-18T15:47:48;9.10;99.90
4647;DHT22;2336;47.822;7.564;2023-11-18T15:50:16;9.10;99.90
4647;DHT22;2336;47.822;7.564;2023-11-18T15:52:44;9.10;99.90
4647;DHT22;2336;47.822;7.564;2023-11-18T15:55:11;9.10;99.90
4647;DHT22;2336;47.822;7.564;2023-11-18T15:57:39;9.10;99.90
4647;DHT22;2336;47.822;7.564;2023-11-18T16:00:07;9.20;99.90
4647;DHT22;2336;47.822;7.564;2023-11-18T16:02:41;9.20;99.90
4647;DHT22;2336;47.822;7.564;2023-11-18T16:05:12;9.20;99.90
4647;DHT22;2336;47.822;7.564;2023-11-18T16:07:41;9.20;99.90
4647;DHT22;2336;47.822;7.564;2023-11-18T16:10:08;9.30;99.90
4647;DHT22;2336;47.822;7.564;2023-11-18T16:12:36;9.30;99.90
4647;DHT22;2336;47.822;7.564;2023-11-18T16:15:04;9.30;99.90
4647;DHT22;2336;47.822;7.564;2023-11-18T16:17:33;9.30;99.90
4647;DHT22;2336;47.822;7.564;2023-11-18T16:20:02;9.30;99.90
4647;DHT22;2336;47.822;7.564;2023-11-18T16:22:32;9.30;99.90
4647;DHT22;2336;47.822;7.564;2023-11-18T16:24:59;9.30;99.90
4647;DHT22;2336;47.822;7.564;2023-11-18T16:27:26;9.30;99.90
4647;DHT22;2336;47.822;7.564;2023-11-18T16:29:53;9.30;99.90
4647;DHT22;2336;47.822;7.564;2023-11-18T16:32:20;9.30;99.90
4647;DHT22;2336;47.822;7.564;2023-11-18T16:34:46;9.30;99.90